Sunday, April 23, 2017

  Over 48,494,314 pages visited!

GMT:
21:38
PACIFIC:
2:38:17 PM
MOUNTAIN:
3:38:17 PM

CENTRAL:
4:38:17 PM

EASTERN:
5:38:17 PM
ATLANTIC:
6:38:17 PM
NEWFOUNDLAND:
7:08:17 PM
 

 


Watches/Warnings
Current Conditions
Radar/Satellite
Lightning Images


Current Weather Conditions For TORONTO PEARSON,ON

 


A Few Clouds
 

Temperature: 20�C / 68�F
Dew Point: 01 �C / 34�F
Humidity: 28 %
Pressure: 1016.1 mbs (30 inches)
Visibility: 24.1 kms (15 SM)
Wind Direction: W (270�)
Wind Speed: 22.2 Km/h (13.8 MPH)
Max Wind Gust: No Gusts
Humidex: N/A
WindChill: N/A
    

Observation Information

Date/Time: Sunday, April 23, 2017 @ 21:00Z
Local Time:
Metar Coded: CYYZ 232100Z 27012KT 15SM FEW050 FEW270 20/01 A3000 RMK CF1CI1 CF TR CI TR SLP161 DENSITY ALT 1100FT

 

 

                   1997-2017 The Ontario Weather Page